Time;durP1;ratioP1;P1;durP2;ratioP2;P2;SDS_P1;SDS_P2;PMS_P1;PMS_P2;Temp;Humidity;BMP_temperature;BMP_pressure;BME280_temperature;BME280_humidity;BME280_pressure;Samples;Min_cycle;Max_cycle;Signal;HPM_P1;HPM_P2
2023/10/07 00:00:59;;;;;;;9.85;5.28;;;;;;;5.71;100.00;94807.41;5050091;28;20044;-60
2023/10/07 00:03:26;;;;;;;9.45;4.78;;;;;;;5.73;100.00;94811.34;5050380;28;20055;-60
2023/10/07 00:06:00;;;;;;;10.77;5.03;;;;;;;5.75;100.00;94808.25;5039698;28;20032;-60
2023/10/07 00:08:28;;;;;;;9.40;4.50;;;;;;;5.72;100.00;94812.50;5032027;28;20813;-60
2023/10/07 00:11:01;;;;;;;9.23;4.47;;;;;;;5.70;100.00;94814.81;5050069;28;20037;-60
2023/10/07 00:13:31;;;;;;;10.25;4.80;;;;;;;5.73;100.00;94800.44;5049097;28;20724;-60
2023/10/07 00:15:59;;;;;;;9.30;4.75;;;;;;;5.71;100.00;94799.25;5049658;28;20052;-60
2023/10/07 00:18:28;;;;;;;11.32;5.05;;;;;;;5.64;100.00;94799.13;5050026;28;20500;-60
2023/10/07 00:20:55;;;;;;;9.90;4.53;;;;;;;5.60;100.00;94801.78;5049897;28;20043;-60
2023/10/07 00:23:26;;;;;;;9.80;4.55;;;;;;;5.57;100.00;94789.69;5049292;28;20453;-60
2023/10/07 00:25:55;;;;;;;10.90;5.03;;;;;;;5.54;100.00;94793.13;5049920;28;20033;-60
2023/10/07 00:28:32;;;;;;;9.65;4.75;;;;;;;5.50;100.00;94795.00;5048569;28;20897;-59
2023/10/07 00:31:06;;;;;;;9.30;4.35;;;;;;;5.50;100.00;94786.03;5049421;28;20037;-60
2023/10/07 00:33:50;;;;;;;10.73;4.50;;;;;;;5.58;100.00;94796.69;5049560;28;20393;-60
2023/10/07 00:39:09;;;;;;;9.18;4.88;;;;;;;5.39;100.00;94780.38;5044545;28;20402;-60
2023/10/07 00:41:45;;;;;;;8.50;4.82;;;;;;;5.40;100.00;94784.69;5049653;28;20037;-60
2023/10/07 00:44:22;;;;;;;9.48;4.80;;;;;;;5.37;100.00;94774.50;5048840;28;20645;-60
2023/10/07 00:49:50;;;;;;;11.18;4.72;;;;;;;5.33;100.00;94779.91;5062089;28;21935;-60
2023/10/07 00:57:37;;;;;;;11.68;5.53;;;;;;;5.30;100.00;94785.28;5067872;28;20108;-60
2023/10/07 01:02:51;;;;;;;10.82;4.75;;;;;;;5.22;100.00;94768.03;5084871;28;20044;-60
2023/10/07 01:05:27;;;;;;;10.05;4.68;;;;;;;5.25;100.00;94771.97;5062885;28;20037;-60
2023/10/07 01:07:54;;;;;;;8.82;4.70;;;;;;;5.21;100.00;94771.88;5050318;28;20105;-60
2023/10/07 01:10:31;;;;;;;10.32;5.28;;;;;;;5.20;100.00;94767.59;5066517;28;20362;-60
2023/10/07 01:13:03;;;;;;;11.87;5.00;;;;;;;5.18;100.00;94759.78;5068991;28;20043;-60
2023/10/07 01:15:31;;;;;;;11.85;5.05;;;;;;;5.15;100.00;94763.25;5069153;28;20044;-60
2023/10/07 01:18:05;;;;;;;11.10;4.93;;;;;;;5.12;100.00;94763.97;5068890;28;20047;-60
2023/10/07 01:20:48;;;;;;;11.98;4.80;;;;;;;5.06;100.00;94757.22;5068720;28;20043;-60
2023/10/07 01:23:18;;;;;;;9.77;5.00;;;;;;;5.07;100.00;94753.38;5068362;28;20075;-60
2023/10/07 01:25:50;;;;;;;9.70;4.53;;;;;;;5.06;100.00;94759.97;5069065;28;20037;-60
2023/10/07 01:28:17;;;;;;;10.10;4.63;;;;;;;5.05;100.00;94755.69;5068500;28;20055;-60
2023/10/07 01:33:39;;;;;;;10.60;5.07;;;;;;;5.00;100.00;94758.69;5068296;28;20577;-60
2023/10/07 01:38:52;;;;;;;11.63;5.17;;;;;;;4.92;100.00;94757.75;5068816;28;20029;-60
2023/10/07 01:41:20;;;;;;;10.52;4.70;;;;;;;4.89;100.00;94755.75;5068561;28;20441;-60
2023/10/07 01:43:58;;;;;;;10.27;4.43;;;;;;;4.88;100.00;94758.81;5068544;28;20052;-60
2023/10/07 01:46:27;;;;;;;8.77;4.70;;;;;;;4.84;100.00;94758.75;5068065;28;20615;-60
2023/10/07 01:48:57;;;;;;;9.05;4.78;;;;;;;4.82;100.00;94752.09;5068813;28;20032;-60
2023/10/07 01:51:29;;;;;;;11.13;4.80;;;;;;;4.79;100.00;94751.66;5067814;28;21278;-60
2023/10/07 01:54:03;;;;;;;10.23;4.63;;;;;;;4.74;100.00;94749.22;5068887;28;20462;-60
2023/10/07 01:56:31;;;;;;;10.88;4.85;;;;;;;4.70;100.00;94753.03;5054731;28;20304;-60
2023/10/07 01:59:09;;;;;;;10.23;4.63;;;;;;;4.68;100.00;94749.88;5048430;28;20095;-59
2023/10/07 02:01:41;;;;;;;9.95;5.10;;;;;;;4.58;100.00;94749.28;5049119;28;20045;-60
2023/10/07 02:04:18;;;;;;;10.50;5.03;;;;;;;4.57;100.00;94752.38;5048106;28;20051;-60
2023/10/07 02:06:54;;;;;;;10.68;4.90;;;;;;;4.51;100.00;94742.94;5032255;28;20043;-60
2023/10/07 02:09:25;;;;;;;11.88;5.47;;;;;;;4.48;100.00;94744.41;5041605;28;20501;-60
2023/10/07 02:11:53;;;;;;;10.40;5.05;;;;;;;4.47;100.00;94744.78;5052704;28;20417;-60
2023/10/07 02:14:25;;;;;;;11.30;5.18;;;;;;;4.42;100.00;94745.06;5051772;28;20059;-60
2023/10/07 02:16:53;;;;;;;11.93;5.17;;;;;;;4.41;100.00;94747.00;5052406;28;20047;-60
2023/10/07 02:19:31;;;;;;;11.32;5.25;;;;;;;4.42;100.00;94743.13;5051866;28;20501;-59
2023/10/07 02:22:00;;;;;;;13.65;5.30;;;;;;;4.35;100.00;94746.47;5051577;28;20044;-59
2023/10/07 02:24:30;;;;;;;10.15;5.07;;;;;;;4.28;100.00;94745.53;5052148;28;20405;-60
2023/10/07 02:27:03;;;;;;;11.20;5.57;;;;;;;4.31;100.00;94748.34;5051650;28;20051;-57
2023/10/07 02:29:31;;;;;;;11.10;5.50;;;;;;;4.29;100.00;94747.13;5044717;28;20409;-60
2023/10/07 02:32:06;;;;;;;10.20;5.35;;;;;;;4.30;100.00;94748.69;5051472;28;20049;-59
2023/10/07 02:34:34;;;;;;;12.30;5.43;;;;;;;4.25;100.00;94744.31;5052096;28;20052;-60
2023/10/07 02:37:21;;;;;;;10.80;5.20;;;;;;;4.21;100.00;94746.16;5051691;28;20563;-60
2023/10/07 02:39:49;;;;;;;11.70;5.75;;;;;;;4.18;100.00;94746.88;5052053;28;20074;-60
2023/10/07 02:42:21;;;;;;;11.57;5.37;;;;;;;4.16;100.00;94741.78;5051557;28;20504;-60
2023/10/07 02:45:00;;;;;;;11.20;5.38;;;;;;;4.12;100.00;94748.28;5051962;28;20040;-59
2023/10/07 02:47:31;;;;;;;10.77;5.10;;;;;;;4.04;100.00;94750.03;5058353;28;20711;-60
2023/10/07 02:50:01;;;;;;;13.38;5.40;;;;;;;3.94;100.00;94745.16;5051117;28;20376;-60
2023/10/07 02:52:35;;;;;;;10.95;5.38;;;;;;;3.97;100.00;94747.19;5051486;28;20049;-60
2023/10/07 02:57:57;;;;;;;11.35;5.78;;;;;;;3.97;100.00;94749.91;5051730;28;20090;-60
2023/10/07 03:00:38;;;;;;;14.25;5.38;;;;;;;3.96;100.00;94759.16;5058184;28;20113;-60
2023/10/07 03:08:43;;;;;;;11.83;5.20;;;;;;;3.91;100.00;94748.59;5015069;28;21656;-60
2023/10/07 03:11:11;;;;;;;12.13;5.47;;;;;;;3.85;100.00;94748.06;5050914;28;20064;-60
2023/10/07 03:13:45;;;;;;;11.32;5.57;;;;;;;3.81;100.00;94747.19;5051308;28;20047;-60
2023/10/07 03:18:55;;;;;;;12.10;5.10;;;;;;;3.49;100.00;94758.06;5050197;28;20098;-60
2023/10/07 03:21:35;;;;;;;11.37;5.70;;;;;;;3.56;100.00;94760.94;5058402;28;20387;-60
2023/10/07 03:24:10;;;;;;;9.63;5.20;;;;;;;3.59;100.00;94768.38;5038210;28;20413;-58
2023/10/07 03:26:40;;;;;;;14.07;5.78;;;;;;;3.60;100.00;94774.59;5050666;28;20033;-58
2023/10/07 03:29:07;;;;;;;11.57;5.70;;;;;;;3.58;100.00;94763.28;5050539;28;20049;-58
2023/10/07 03:34:08;;;;;;;10.70;4.97;;;;;;;3.56;100.00;94763.66;5050243;28;20494;-58
2023/10/07 03:36:41;;;;;;;12.27;6.07;;;;;;;3.56;100.00;94768.28;5050680;28;20049;-58
2023/10/07 03:41:52;;;;;;;10.75;5.20;;;;;;;3.50;100.00;94764.25;5050644;28;20531;-58
2023/10/07 03:44:21;;;;;;;12.43;5.38;;;;;;;3.47;100.00;94773.88;5037736;28;20037;-58
2023/10/07 03:46:54;;;;;;;14.00;7.07;;;;;;;3.43;100.00;94773.00;5050360;28;20524;-58
2023/10/07 03:49:22;;;;;;;12.35;5.68;;;;;;;3.39;100.00;94772.91;5049648;28;20414;-58
2023/10/07 03:52:03;;;;;;;10.65;5.63;;;;;;;3.40;100.00;94774.50;5050372;28;20055;-58
2023/10/07 03:54:30;;;;;;;9.65;5.30;;;;;;;3.38;100.00;94770.53;5049436;28;21717;-58
2023/10/07 03:57:00;;;;;;;12.65;5.72;;;;;;;3.36;100.00;94770.91;5050017;28;20110;-58
2023/10/07 03:59:31;;;;;;;11.33;5.63;;;;;;;3.35;100.00;94768.53;5050462;28;20045;-58
2023/10/07 04:01:59;;;;;;;12.20;5.28;;;;;;;3.32;100.00;94769.22;5049714;28;20045;-58
2023/10/07 04:04:26;;;;;;;12.45;5.40;;;;;;;3.30;100.00;94763.34;5050306;28;20041;-58
2023/10/07 04:06:53;;;;;;;11.00;4.85;;;;;;;3.31;100.00;94773.88;5032490;28;20398;-58
2023/10/07 04:09:27;;;;;;;11.93;5.13;;;;;;;3.31;100.00;94775.81;5039171;28;20041;-58
2023/10/07 04:11:54;;;;;;;11.07;5.50;;;;;;;3.31;100.00;94779.28;5050228;28;20053;-58
2023/10/07 04:14:30;;;;;;;11.30;5.00;;;;;;;3.20;100.00;94779.03;5049528;28;20056;-59
2023/10/07 04:17:06;;;;;;;12.48;5.15;;;;;;;3.23;100.00;94782.19;5049608;28;20082;-58
2023/10/07 04:19:40;;;;;;;11.13;5.22;;;;;;;3.15;100.00;94789.34;5049818;28;20033;-58
2023/10/07 04:22:08;;;;;;;10.73;5.10;;;;;;;3.08;100.00;94784.50;5049243;28;20052;-58
2023/10/07 04:24:38;;;;;;;11.70;5.37;;;;;;;3.07;100.00;94780.22;5049930;28;20047;-58
2023/10/07 04:27:06;;;;;;;12.07;5.55;;;;;;;3.03;100.00;94789.38;5049165;28;20051;-58
2023/10/07 04:29:33;;;;;;;13.57;5.70;;;;;;;3.03;100.00;94781.25;5049896;28;20041;-58
2023/10/07 04:32:37;;;;;;;10.85;5.40;;;;;;;3.03;100.00;94782.03;5049051;28;20045;-58
2023/10/07 04:35:30;;;;;;;11.45;5.80;;;;;;;3.02;100.00;94782.38;5045848;28;20037;-58
2023/10/07 04:37:47;;;;;;;10.53;5.13;;;;;;;2.97;100.00;94797.75;5050404;28;20530;-58
2023/10/07 04:43:00;;;;;;;10.52;5.43;;;;;;;2.92;100.00;94794.53;5049659;28;20036;-58
2023/10/07 04:45:37;;;;;;;12.60;5.68;;;;;;;2.94;100.00;94803.88;5048433;28;20379;-58
2023/10/07 04:51:07;;;;;;;20.27;9.10;;;;;;;2.92;100.00;94808.09;5037223;28;20043;-58
2023/10/07 04:53:40;;;;;;;15.30;7.60;;;;;;;2.89;100.00;94814.97;5048295;28;20979;-58
2023/10/07 04:56:08;;;;;;;16.88;8.05;;;;;;;2.85;100.00;94822.22;5048911;28;20037;-58
2023/10/07 04:58:39;;;;;;;17.38;7.00;;;;;;;2.86;100.00;94820.28;5049391;28;20393;-58
2023/10/07 05:01:56;;;;;;;15.02;6.78;;;;;;;2.82;100.00;94817.47;5048631;28;20119;-58
2023/10/07 05:04:04;;;;;;;14.67;6.80;;;;;;;2.74;100.00;94811.06;5043526;28;20452;-58
2023/10/07 05:06:34;;;;;;;15.10;6.80;;;;;;;2.75;100.00;94817.25;5047902;28;20072;-58
2023/10/07 05:09:26;;;;;;;13.23;5.88;;;;;;;2.75;100.00;94817.25;5048723;28;20101;-58
2023/10/07 05:11:50;;;;;;;15.75;6.40;;;;;;;2.66;100.00;94808.50;5048953;28;20428;-58
2023/10/07 05:14:22;;;;;;;11.95;5.97;;;;;;;2.64;100.00;94808.84;5067904;28;20484;-58
2023/10/07 05:16:49;;;;;;;10.73;5.23;;;;;;;2.66;100.00;94805.78;5068058;28;20050;-58
2023/10/07 05:19:22;;;;;;;13.35;6.10;;;;;;;2.63;100.00;94815.38;5068681;28;20066;-58
2023/10/07 05:22:05;;;;;;;14.45;6.15;;;;;;;2.65;100.00;94809.63;5068983;28;20396;-59
2023/10/07 05:24:32;;;;;;;12.98;5.80;;;;;;;2.60;100.00;94805.25;5048037;28;20867;-59
2023/10/07 05:27:00;;;;;;;12.20;5.93;;;;;;;2.61;100.00;94795.97;5048353;28;20049;-59
2023/10/07 05:29:28;;;;;;;13.57;5.63;;;;;;;2.60;100.00;94800.59;5049049;28;20037;-59
2023/10/07 05:31:56;;;;;;;12.48;6.20;;;;;;;2.63;100.00;94804.53;5048955;28;20045;-60
2023/10/07 05:34:29;;;;;;;12.35;6.47;;;;;;;2.65;100.00;94802.28;5067859;28;20852;-60
2023/10/07 05:37:10;;;;;;;12.30;5.65;;;;;;;2.72;100.00;94812.56;5068544;28;20053;-58
2023/10/07 05:39:41;;;;;;;12.25;6.05;;;;;;;2.77;100.00;94812.28;5067576;28;21804;-59
2023/10/07 05:42:11;;;;;;;11.23;5.43;;;;;;;2.86;100.00;94815.66;5068933;28;20044;-59
2023/10/07 05:44:39;;;;;;;11.75;6.00;;;;;;;2.71;100.00;94803.59;5072936;28;20041;-59
2023/10/07 05:47:08;;;;;;;10.70;5.50;;;;;;;2.81;100.00;94799.63;5072240;28;20504;-59
2023/10/07 05:49:37;;;;;;;12.30;5.45;;;;;;;2.80;100.00;94789.94;5072752;28;20089;-59
2023/10/07 05:52:05;;;;;;;12.45;6.15;;;;;;;2.80;100.00;94782.59;5072090;28;20113;-59
2023/10/07 05:54:32;;;;;;;11.47;5.80;;;;;;;2.77;100.00;94780.53;5072761;28;20052;-59
2023/10/07 05:56:59;;;;;;;12.70;5.50;;;;;;;2.79;100.00;94770.16;5072171;28;20041;-59
2023/10/07 05:59:33;;;;;;;10.73;5.57;;;;;;;2.79;100.00;94772.84;5072385;28;20036;-59
2023/10/07 06:02:05;;;;;;;10.30;5.20;;;;;;;2.90;100.00;94770.47;5057423;28;20643;-58
2023/10/07 06:04:33;;;;;;;10.93;5.10;;;;;;;3.03;100.00;94776.63;5058127;28;20051;-59
2023/10/07 06:07:00;;;;;;;9.83;4.97;;;;;;;3.09;100.00;94782.59;5071669;28;20052;-59
2023/10/07 06:09:28;;;;;;;11.80;4.75;;;;;;;3.12;100.00;94782.69;5072343;28;20489;-59
2023/10/07 06:11:59;;;;;;;10.05;4.95;;;;;;;2.97;100.00;94781.50;5072261;28;20070;-59
2023/10/07 06:14:26;;;;;;;8.70;4.70;;;;;;;2.99;100.00;94797.41;5059074;28;21755;-59
2023/10/07 06:16:53;;;;;;;9.90;5.00;;;;;;;3.00;100.00;94799.00;5052217;28;20040;-59
2023/10/07 06:19:23;;;;;;;10.20;5.50;;;;;;;2.71;100.00;94817.16;5051171;28;20130;-59
2023/10/07 06:21:56;;;;;;;13.15;6.78;;;;;;;2.38;100.00;94826.25;5052140;28;20055;-59
2023/10/07 06:24:23;;;;;;;12.68;5.47;;;;;;;2.46;100.00;94827.28;5051371;28;20401;-59
2023/10/07 06:26:54;;;;;;;10.77;5.57;;;;;;;2.77;100.00;94840.19;5051797;28;20407;-59
2023/10/07 06:29:20;;;;;;;11.13;6.00;;;;;;;3.05;100.00;94838.66;5051686;28;20044;-59
2023/10/07 06:32:13;;;;;;;11.43;6.00;;;;;;;3.27;100.00;94834.59;5051562;28;20041;-59
2023/10/07 06:34:41;;;;;;;14.27;6.13;;;;;;;3.39;100.00;94827.19;5050457;28;20047;-59
2023/10/07 06:37:08;;;;;;;12.90;6.43;;;;;;;3.61;100.00;94830.47;5051328;28;20102;-59
2023/10/07 06:39:34;;;;;;;9.77;4.72;;;;;;;3.83;100.00;94828.31;5051272;28;20401;-59
2023/10/07 06:42:01;;;;;;;12.20;6.18;;;;;;;3.85;100.00;94826.81;5051337;28;20052;-59
2023/10/07 06:44:30;;;;;;;14.33;6.23;;;;;;;3.85;100.00;94829.53;5051637;28;20043;-59
2023/10/07 06:46:57;;;;;;;10.48;5.30;;;;;;;3.99;100.00;94823.66;5051329;28;20443;-58
2023/10/07 06:49:24;;;;;;;9.65;5.30;;;;;;;4.13;100.00;94824.00;5066242;28;20041;-60
2023/10/07 06:51:56;;;;;;;10.15;4.65;;;;;;;4.33;100.00;94834.94;5050413;28;20076;-59
2023/10/07 06:54:31;;;;;;;11.95;5.05;;;;;;;4.54;100.00;94848.22;5049511;28;21507;-59
2023/10/07 06:57:04;;;;;;;10.87;4.90;;;;;;;4.51;100.00;94849.72;5050794;28;20041;-58
2023/10/07 06:59:31;;;;;;;10.07;5.40;;;;;;;4.44;100.00;94862.34;5051381;28;20037;-59
2023/10/07 07:02:05;;;;;;;10.15;5.57;;;;;;;4.08;100.00;94859.56;5036403;28;20046;-59
2023/10/07 07:04:35;;;;;;;11.55;5.47;;;;;;;3.97;100.00;94861.25;5038172;28;20440;-59
2023/10/07 07:07:11;;;;;;;9.45;5.30;;;;;;;4.65;100.00;94857.41;5050816;28;20041;-60
2023/10/07 07:09:50;;;;;;;9.83;4.80;;;;;;;6.31;100.00;94866.84;5050969;28;20039;-60
2023/10/07 07:12:23;;;;;;;8.68;4.80;;;;;;;10.28;100.00;94859.75;5050543;28;20401;-60
2023/10/07 07:14:50;;;;;;;8.95;4.60;;;;;;;13.43;96.20;94862.22;5051217;28;20037;-60
2023/10/07 07:17:29;;;;;;;7.78;4.65;;;;;;;13.25;89.74;94870.66;5050575;28;20037;-60
2023/10/07 07:22:44;;;;;;;8.03;4.80;;;;;;;15.87;70.03;94870.28;5050877;28;20033;-60
2023/10/07 07:25:22;;;;;;;8.13;4.40;;;;;;;17.74;61.95;94858.31;5050355;28;20063;-60
2023/10/07 07:27:52;;;;;;;8.75;4.40;;;;;;;17.25;58.28;94857.69;5050983;28;20425;-60
2023/10/07 07:30:29;;;;;;;8.77;4.10;;;;;;;15.84;62.72;94856.56;5049023;28;20037;-60
2023/10/07 07:32:59;;;;;;;8.38;4.07;;;;;;;17.19;61.54;94856.66;5050240;28;20041;-59
2023/10/07 07:35:39;;;;;;;6.93;3.97;;;;;;;19.12;53.55;94851.00;5050724;28;20040;-61
2023/10/07 07:38:29;;;;;;;8.13;4.10;;;;;;;20.98;49.32;94853.00;5049761;28;20094;-61
2023/10/07 07:41:11;;;;;;;7.43;4.88;;;;;;;20.56;46.97;94845.84;5050661;28;20504;-59
2023/10/07 07:43:39;;;;;;;6.80;4.50;;;;;;;20.97;47.50;94848.66;5049722;28;20632;-59
2023/10/07 07:48:53;;;;;;;8.53;5.13;;;;;;;22.00;43.58;94865.84;5050529;28;20047;-59
2023/10/07 07:51:24;;;;;;;9.82;5.47;;;;;;;20.91;45.60;94868.78;5050109;28;20052;-59
2023/10/07 07:53:52;;;;;;;8.07;5.20;;;;;;;22.07;43.65;94875.91;5049974;28;20051;-60
2023/10/07 07:56:20;;;;;;;8.43;5.35;;;;;;;21.27;43.97;94877.72;5049751;28;20040;-60
2023/10/07 07:58:47;;;;;;;10.35;5.63;;;;;;;22.83;42.14;94876.84;5050272;28;20052;-60
2023/10/07 08:01:19;;;;;;;9.23;5.30;;;;;;;23.49;39.92;94883.69;5028870;28;20051;-60
2023/10/07 08:03:47;;;;;;;8.32;5.30;;;;;;;22.91;40.34;94872.44;5047732;28;20397;-61
2023/10/07 08:06:21;;;;;;;7.43;5.03;;;;;;;25.65;35.84;94861.59;5049286;28;20083;-61
2023/10/07 08:08:49;;;;;;;7.40;5.00;;;;;;;26.64;33.95;94856.03;5049874;28;20043;-59
2023/10/07 08:11:17;;;;;;;7.40;4.88;;;;;;;26.28;34.37;94849.81;5049690;28;20053;-62
2023/10/07 08:13:45;;;;;;;8.43;5.10;;;;;;;27.74;32.76;94840.88;5047439;28;20096;-61
2023/10/07 08:16:19;;;;;;;9.40;5.13;;;;;;;27.06;32.01;94841.28;5030370;28;20071;-60
2023/10/07 08:18:54;;;;;;;7.03;4.95;;;;;;;25.08;35.07;94837.59;5040987;28;20052;-59
2023/10/07 08:21:28;;;;;;;6.80;5.03;;;;;;;26.01;34.51;94846.19;5048955;28;20508;-59
2023/10/07 08:24:01;;;;;;;8.68;5.15;;;;;;;24.09;36.50;94848.19;5049688;28;20049;-59
2023/10/07 08:26:28;;;;;;;8.50;6.10;;;;;;;23.34;39.11;94850.00;5056064;28;20760;-61
2023/10/07 08:31:39;;;;;;;10.82;6.93;;;;;;;24.15;38.23;94851.88;5055278;28;21509;-59
2023/10/07 08:36:36;;;;;;;9.63;6.93;;;;;;;22.37;40.76;94860.19;5069388;28;20048;-59
2023/10/07 08:39:08;;;;;;;10.97;7.23;;;;;;;21.99;41.84;94843.94;5068888;28;20057;-61
2023/10/07 08:41:40;;;;;;;11.60;7.72;;;;;;;25.02;36.98;94842.34;5069227;28;20044;-61
2023/10/07 08:46:53;;;;;;;9.95;7.20;;;;;;;28.20;31.07;94837.69;5069660;28;20045;-62
2023/10/07 08:49:26;;;;;;;8.60;6.15;;;;;;;29.79;29.56;94833.50;5068824;28;20045;-60
2023/10/07 08:51:54;;;;;;;7.77;5.73;;;;;;;28.32;29.70;94829.25;5069148;28;20077;-60
2023/10/07 08:54:31;;;;;;;7.65;5.43;;;;;;;29.19;29.14;94827.50;5068740;28;20040;-60
2023/10/07 08:57:09;;;;;;;7.35;5.10;;;;;;;31.51;25.92;94821.19;5068659;28;20626;-60
2023/10/07 08:59:37;;;;;;;7.45;4.60;;;;;;;32.14;24.13;94819.91;5069076;28;20043;-60
2023/10/07 09:02:04;;;;;;;7.28;4.40;;;;;;;32.91;23.06;94812.81;5068912;28;20055;-60
2023/10/07 09:04:31;;;;;;;8.07;4.50;;;;;;;31.74;23.84;94816.03;5067938;28;20045;-60
2023/10/07 09:07:00;;;;;;;7.97;4.50;;;;;;;33.48;22.79;94820.34;5068622;28;20044;-60
2023/10/07 09:09:33;;;;;;;8.43;4.15;;;;;;;33.85;22.14;94818.59;5068863;28;20047;-60
2023/10/07 09:12:08;;;;;;;6.40;4.07;;;;;;;33.17;22.44;94822.75;5068756;28;20066;-60
2023/10/07 09:14:35;;;;;;;6.57;4.15;;;;;;;31.84;24.37;94822.84;5061024;28;20113;-60
2023/10/07 09:17:04;;;;;;;7.23;4.53;;;;;;;30.71;23.88;94823.16;5047948;28;20056;-60
2023/10/07 09:19:34;;;;;;;7.80;4.43;;;;;;;27.50;28.94;94819.50;5066591;28;20059;-59
2023/10/07 09:22:10;;;;;;;8.23;5.78;;;;;;;29.19;27.47;94824.66;5055312;28;20044;-60
2023/10/07 09:24:43;;;;;;;6.72;3.95;;;;;;;30.99;25.20;94831.50;5069017;28;20474;-60
2023/10/07 09:27:13;;;;;;;8.13;3.95;;;;;;;29.13;26.87;94838.81;5067921;28;20456;-60
2023/10/07 09:29:48;;;;;;;7.37;4.00;;;;;;;31.67;24.77;94837.22;5069158;28;20048;-60
2023/10/07 09:32:21;;;;;;;7.55;3.85;;;;;;;32.67;22.79;94832.84;5068225;28;20113;-60
2023/10/07 09:34:48;;;;;;;7.28;3.83;;;;;;;28.43;26.80;94838.53;5068882;28;20425;-59
2023/10/07 09:37:21;;;;;;;6.45;3.40;;;;;;;31.55;23.87;94819.59;5068258;28;20041;-60
2023/10/07 09:39:55;;;;;;;5.50;3.40;;;;;;;32.79;23.57;94825.69;5068629;28;20053;-61
2023/10/07 09:42:36;;;;;;;7.53;3.43;;;;;;;32.23;24.30;94836.53;5067878;28;20464;-61
2023/10/07 09:47:40;;;;;;;5.88;3.55;;;;;;;30.30;24.91;94823.97;5068075;28;20114;-61
2023/10/07 09:50:25;;;;;;;5.50;3.00;;;;;;;29.44;25.29;94820.75;5068281;28;20049;-61
2023/10/07 09:53:24;;;;;;;6.03;2.90;;;;;;;26.92;28.38;94822.47;5068683;28;20401;-61
2023/10/07 09:56:24;;;;;;;5.70;3.10;;;;;;;26.36;29.70;94828.41;5048213;28;20484;-60
2023/10/07 09:59:13;;;;;;;5.38;2.80;;;;;;;26.53;29.42;94822.16;5047969;28;20253;-60
2023/10/07 10:02:16;;;;;;;6.32;3.05;;;;;;;25.89;31.00;94811.53;5047584;28;21721;-60
2023/10/07 10:05:11;;;;;;;5.90;2.90;;;;;;;25.90;31.45;94815.94;5047606;28;20126;-61
2023/10/07 10:08:11;;;;;;;5.88;3.20;;;;;;;26.51;30.42;94819.81;5047410;28;20875;-60
2023/10/07 10:10:44;;;;;;;6.20;3.10;;;;;;;26.74;29.83;94820.78;5032568;28;20906;-60
2023/10/07 10:13:29;;;;;;;7.47;3.15;;;;;;;25.67;31.23;94811.28;5048358;28;20051;-60
2023/10/07 10:16:00;;;;;;;6.28;3.20;;;;;;;24.17;33.43;94820.56;5048591;28;20397;-60
2023/10/07 10:18:40;;;;;;;5.88;3.25;;;;;;;25.33;31.54;94824.16;5047698;28;20336;-60
2023/10/07 10:21:12;;;;;;;7.05;3.30;;;;;;;22.49;33.23;94822.88;5047801;28;20102;-60
2023/10/07 10:23:42;;;;;;;6.30;2.80;;;;;;;23.97;33.63;94821.97;5048547;28;20033;-60
2023/10/07 10:26:14;;;;;;;8.55;3.75;;;;;;;24.48;32.26;94828.47;5047948;28;20540;-61
2023/10/07 10:28:42;;;;;;;6.15;3.20;;;;;;;25.65;30.14;94825.06;5049962;28;20094;-60
2023/10/07 10:31:20;;;;;;;5.88;2.90;;;;;;;29.16;26.30;94826.47;5051494;28;20045;-61
2023/10/07 10:33:52;;;;;;;4.43;2.60;;;;;;;31.77;23.28;94818.53;5051875;28;20110;-61
2023/10/07 10:36:22;;;;;;;6.10;2.83;;;;;;;33.35;21.37;94812.59;5051761;28;20122;-61
2023/10/07 10:38:49;;;;;;;4.85;2.33;;;;;;;35.26;19.12;94801.91;5051636;28;20061;-61
2023/10/07 10:41:29;;;;;;;5.28;2.20;;;;;;;33.88;19.52;94817.53;5051459;28;20528;-61
2023/10/07 10:44:06;;;;;;;4.65;2.50;;;;;;;32.03;20.17;94809.44;5039213;28;20049;-61
2023/10/07 10:46:44;;;;;;;4.00;2.15;;;;;;;32.40;19.69;94805.06;5057524;28;20467;-61
2023/10/07 10:49:18;;;;;;;4.93;2.40;;;;;;;30.12;21.55;94803.47;5051106;28;20043;-60
2023/10/07 10:51:50;;;;;;;5.93;2.40;;;;;;;28.52;22.96;94809.28;5050245;28;20106;-60
2023/10/07 10:54:18;;;;;;;5.10;2.70;;;;;;;28.86;22.79;94821.34;5051246;28;21018;-61
2023/10/07 10:57:07;;;;;;;4.75;2.30;;;;;;;27.74;24.00;94815.50;5044524;28;20055;-61
2023/10/07 10:59:44;;;;;;;4.75;2.33;;;;;;;27.54;24.18;94819.25;5031252;28;20740;-60
2023/10/07 11:02:16;;;;;;;4.63;2.10;;;;;;;26.13;24.53;94821.00;5051025;28;20041;-60
2023/10/07 11:04:45;;;;;;;5.47;2.67;;;;;;;26.07;24.76;94815.31;5051057;28;20429;-60
2023/10/07 11:07:14;;;;;;;7.05;2.60;;;;;;;25.76;25.67;94819.56;5050717;28;20121;-60
2023/10/07 11:09:42;;;;;;;5.35;2.10;;;;;;;25.92;23.38;94812.63;5050978;28;20405;-60
2023/10/07 11:12:12;;;;;;;5.22;2.00;;;;;;;25.39;22.85;94813.75;5050843;28;20406;-59
2023/10/07 11:14:43;;;;;;;4.07;2.00;;;;;;;26.50;21.57;94818.25;5051305;28;20663;-61
2023/10/07 11:17:12;;;;;;;4.28;1.88;;;;;;;27.39;19.47;94808.94;5050717;28;20045;-60
2023/10/07 11:19:42;;;;;;;6.70;2.00;;;;;;;27.16;19.66;94802.38;5051351;28;20041;-61
2023/10/07 11:22:13;;;;;;;5.18;1.75;;;;;;;29.30;18.05;94804.06;5050464;28;20103;-60
2023/10/07 11:24:40;;;;;;;5.40;1.80;;;;;;;31.24;15.75;94801.84;5050606;28;20482;-61
2023/10/07 11:27:08;;;;;;;5.03;1.80;;;;;;;30.59;15.84;94786.44;5050347;28;20045;-61
2023/10/07 11:29:35;;;;;;;4.70;2.08;;;;;;;27.43;20.70;94791.78;5050993;28;20080;-60
2023/10/07 11:32:04;;;;;;;4.07;1.92;;;;;;;26.31;18.46;94798.91;5050489;28;20536;-60
2023/10/07 11:34:38;;;;;;;3.80;1.70;;;;;;;25.67;18.81;94791.59;5050642;28;20047;-59
2023/10/07 11:37:09;;;;;;;4.07;1.75;;;;;;;24.97;19.21;94787.66;5050221;28;20053;-61
2023/10/07 11:39:43;;;;;;;4.60;1.73;;;;;;;24.51;19.28;94788.25;5065255;28;20086;-60
2023/10/07 11:42:14;;;;;;;4.47;2.20;;;;;;;24.09;19.38;94789.31;5037804;28;20049;-60
2023/10/07 11:44:42;;;;;;;5.38;1.95;;;;;;;24.29;17.31;94794.25;5050987;28;20041;-60
2023/10/07 11:47:10;;;;;;;5.05;1.77;;;;;;;24.31;18.47;94800.91;5050021;28;20040;-60
2023/10/07 11:49:38;;;;;;;5.40;1.90;;;;;;;24.09;18.95;94792.13;5050573;28;20067;-60
2023/10/07 11:52:05;;;;;;;11.27;7.33;;;;;;;23.59;19.44;94789.91;5050130;28;20049;-60
2023/10/07 11:54:34;;;;;;;5.82;2.47;;;;;;;23.98;19.48;94795.47;5050430;28;20103;-59
2023/10/07 11:57:04;;;;;;;5.40;2.17;;;;;;;23.88;20.57;94797.59;5041264;28;20075;-60
2023/10/07 11:59:33;;;;;;;9.02;3.40;;;;;;;23.41;20.21;94790.81;5031055;28;20083;-60
2023/10/07 12:02:01;;;;;;;11.98;7.20;;;;;;;23.60;21.08;94796.28;5049857;28;20056;-60
2023/10/07 12:04:28;;;;;;;5.70;2.53;;;;;;;23.41;22.03;94792.84;5049962;28;20490;-60
2023/10/07 12:06:54;;;;;;;5.05;1.90;;;;;;;22.88;22.29;94791.47;5050100;28;20045;-60
2023/10/07 12:09:22;;;;;;;5.78;2.10;;;;;;;23.16;21.96;94799.72;5049742;28;20526;-60
2023/10/07 12:11:49;;;;;;;6.18;2.40;;;;;;;23.47;22.90;94794.50;5049887;28;20049;-60
2023/10/07 12:14:19;;;;;;;5.75;2.10;;;;;;;23.63;22.77;94787.69;5049403;28;20105;-59
2023/10/07 12:16:46;;;;;;;4.37;2.10;;;;;;;22.82;25.27;94790.53;5049957;28;20037;-59
2023/10/07 12:19:17;;;;;;;5.10;2.00;;;;;;;23.01;25.71;94800.41;5049499;28;20045;-60
2023/10/07 12:21:47;;;;;;;5.85;2.30;;;;;;;23.30;24.07;94802.59;5049592;28;20049;-60
2023/10/07 12:24:16;;;;;;;5.57;2.40;;;;;;;23.19;24.38;94796.75;5049357;28;20037;-60
2023/10/07 12:26:46;;;;;;;6.35;2.30;;;;;;;23.01;24.66;94799.63;5036689;28;20508;-60
2023/10/07 12:29:13;;;;;;;7.07;2.30;;;;;;;23.02;25.19;94807.59;5049223;28;20059;-61
2023/10/07 12:31:42;;;;;;;4.43;2.20;;;;;;;23.33;24.97;94801.63;5049390;28;20037;-60
2023/10/07 12:34:10;;;;;;;5.45;2.50;;;;;;;23.46;25.15;94794.97;5048944;28;20049;-60
2023/10/07 12:36:38;;;;;;;6.05;2.50;;;;;;;23.64;25.90;94794.84;5049390;28;20045;-60
2023/10/07 12:39:15;;;;;;;5.88;2.50;;;;;;;23.30;27.18;94788.56;5048893;28;20384;-60
2023/10/07 12:41:42;;;;;;;5.50;2.40;;;;;;;23.74;25.09;94795.53;5049553;28;20036;-60
2023/10/07 12:44:09;;;;;;;4.95;2.30;;;;;;;24.26;24.14;94798.00;5049211;28;20090;-60
2023/10/07 12:46:38;;;;;;;6.03;2.90;;;;;;;24.51;24.15;94807.91;5049420;28;20055;-60
2023/10/07 12:49:10;;;;;;;5.85;2.40;;;;;;;24.33;24.65;94801.19;5049288;28;20401;-60